createdAt,value
2023-06-30T00:00:58.081Z,55.34
2023-06-30T00:03:25.749Z,55.38
2023-06-30T00:05:52.760Z,54.78
2023-06-30T00:08:20.295Z,55.21
2023-06-30T00:10:47.015Z,54.71
2023-06-30T00:13:13.695Z,55.00
2023-06-30T00:15:40.469Z,55.56
2023-06-30T00:18:07.486Z,55.67
2023-06-30T00:20:35.173Z,54.55
2023-06-30T00:23:02.050Z,54.65
2023-06-30T00:25:28.751Z,54.60
2023-06-30T00:27:55.482Z,54.90
2023-06-30T00:30:22.148Z,54.56
2023-06-30T00:32:49.101Z,54.46
2023-06-30T00:35:15.805Z,56.13
2023-06-30T00:37:42.488Z,56.04
2023-06-30T00:40:10.532Z,55.81
2023-06-30T00:42:37.346Z,55.52
2023-06-30T00:45:04.438Z,54.89
2023-06-30T00:47:31.110Z,54.45
2023-06-30T00:49:57.792Z,55.85
2023-06-30T00:52:24.632Z,56.12
2023-06-30T00:54:51.422Z,56.18
2023-06-30T00:57:18.118Z,55.55
2023-06-30T00:59:44.884Z,55.47
2023-06-30T01:02:13.893Z,55.75
2023-06-30T01:04:53.802Z,56.56
2023-06-30T01:07:24.578Z,55.91
2023-06-30T01:10:06.838Z,55.85
2023-06-30T01:12:33.612Z,55.73
2023-06-30T01:15:00.296Z,55.26
2023-06-30T01:17:27.181Z,55.00
2023-06-30T01:19:54.835Z,55.46
2023-06-30T01:22:26.188Z,56.05
2023-06-30T01:24:55.024Z,56.20
2023-06-30T01:27:22.597Z,56.33
2023-06-30T01:29:50.506Z,56.54
2023-06-30T01:32:18.149Z,55.87
2023-06-30T01:34:46.042Z,56.54
2023-06-30T01:37:13.414Z,57.42
2023-06-30T01:39:41.403Z,57.50
2023-06-30T01:42:08.177Z,57.45
2023-06-30T01:44:35.613Z,58.18
2023-06-30T01:47:02.414Z,58.12
2023-06-30T01:49:29.986Z,58.21
2023-06-30T01:51:56.673Z,58.12
2023-06-30T01:54:23.333Z,57.42
2023-06-30T01:56:50.647Z,57.08
2023-06-30T01:59:17.544Z,58.12
2023-06-30T02:01:44.381Z,58.07
2023-06-30T02:04:11.455Z,57.79
2023-06-30T02:06:38.116Z,57.62
2023-06-30T02:09:04.801Z,57.58
2023-06-30T02:11:31.554Z,57.49
2023-06-30T02:13:58.403Z,57.67
2023-06-30T02:16:25.074Z,57.81
2023-06-30T02:18:56.077Z,58.21
2023-06-30T02:21:23.283Z,57.89
2023-06-30T02:23:50.181Z,58.26
2023-06-30T02:26:17.408Z,58.95
2023-06-30T02:28:44.097Z,59.35
2023-06-30T02:31:10.794Z,59.35
2023-06-30T02:33:37.500Z,59.19
2023-06-30T02:36:04.305Z,59.32
2023-06-30T02:38:31.242Z,59.63
2023-06-30T02:40:57.894Z,59.05
2023-06-30T02:43:24.541Z,59.48
2023-06-30T02:45:51.223Z,59.37
2023-06-30T02:48:18.198Z,59.41
2023-06-30T02:50:45.024Z,59.50
2023-06-30T02:53:13.753Z,59.48
2023-06-30T02:55:40.593Z,58.73
2023-06-30T02:58:10.442Z,59.81
2023-06-30T03:00:38.328Z,60.19
2023-06-30T03:03:05.960Z,58.96
2023-06-30T03:05:35.459Z,58.87
2023-06-30T03:08:04.638Z,59.48
2023-06-30T03:10:31.452Z,58.96
2023-06-30T03:12:58.637Z,58.90
2023-06-30T03:15:26.475Z,59.52
2023-06-30T03:17:55.020Z,60.13
2023-06-30T03:20:22.718Z,60.83
2023-06-30T03:22:49.804Z,60.26
2023-06-30T03:25:16.456Z,59.52
2023-06-30T03:27:43.424Z,60.03
2023-06-30T03:30:10.320Z,60.48
2023-06-30T03:32:40.993Z,60.45
2023-06-30T03:35:08.619Z,60.02
2023-06-30T03:37:38.239Z,60.59
2023-06-30T03:40:07.068Z,61.16
2023-06-30T03:42:34.585Z,60.53
2023-06-30T03:45:01.837Z,59.83
2023-06-30T03:47:31.618Z,60.13
2023-06-30T03:49:58.327Z,60.78
2023-06-30T03:52:27.225Z,59.96
2023-06-30T03:54:53.934Z,60.20
2023-06-30T03:57:20.615Z,60.12
2023-06-30T03:59:47.748Z,60.66
2023-06-30T04:02:14.495Z,60.16
2023-06-30T04:04:41.215Z,59.77
2023-06-30T04:07:08.010Z,60.03
2023-06-30T04:09:34.791Z,60.05
2023-06-30T04:12:01.542Z,59.97
2023-06-30T04:14:28.588Z,60.28
2023-06-30T04:16:56.813Z,59.96
2023-06-30T04:19:23.669Z,59.64
2023-06-30T04:21:50.901Z,59.28
2023-06-30T04:24:17.582Z,59.12
2023-06-30T04:26:44.250Z,58.96
2023-06-30T04:29:10.912Z,59.26
2023-06-30T04:31:37.673Z,59.92
2023-06-30T04:34:04.395Z,59.40
2023-06-30T04:36:31.037Z,58.54
2023-06-30T04:38:59.211Z,58.74
2023-06-30T04:41:26.774Z,57.97
2023-06-30T04:43:53.468Z,57.85
2023-06-30T04:46:20.151Z,57.94
2023-06-30T04:48:46.827Z,58.47
2023-06-30T04:51:14.881Z,57.10
2023-06-30T04:53:42.005Z,57.30
2023-06-30T04:56:08.635Z,58.02
2023-06-30T04:58:35.344Z,58.33
2023-06-30T05:01:02.002Z,58.74
2023-06-30T05:03:28.699Z,59.77
2023-06-30T05:05:58.057Z,59.02
2023-06-30T05:08:24.880Z,58.95
2023-06-30T05:10:51.620Z,59.00
2023-06-30T05:13:18.508Z,60.04
2023-06-30T05:15:45.507Z,59.07
2023-06-30T05:18:12.544Z,60.18
2023-06-30T05:20:40.646Z,59.99
2023-06-30T05:23:07.268Z,59.38
2023-06-30T05:25:33.922Z,59.36
2023-06-30T05:28:01.202Z,58.99
2023-06-30T05:30:27.859Z,58.62
2023-06-30T05:32:54.542Z,57.85
2023-06-30T05:35:21.235Z,58.32
2023-06-30T05:40:14.653Z,57.67
2023-06-30T05:42:41.282Z,58.48
2023-06-30T05:45:07.991Z,58.38
2023-06-30T05:47:34.657Z,58.08
2023-06-30T05:50:01.333Z,59.98
2023-06-30T05:52:28.596Z,61.78
2023-06-30T05:54:55.277Z,63.02
2023-06-30T05:57:22.054Z,65.53
2023-06-30T05:59:48.832Z,67.28
2023-06-30T06:02:15.509Z,71.43
2023-06-30T06:04:42.670Z,72.29
2023-06-30T06:07:09.429Z,74.71
2023-06-30T06:09:36.233Z,75.71
2023-06-30T06:12:03.616Z,76.72
2023-06-30T06:14:30.283Z,76.50
2023-06-30T06:16:56.969Z,78.00
2023-06-30T06:19:23.707Z,78.73
2023-06-30T06:21:50.318Z,77.24
2023-06-30T06:24:19.874Z,76.27
2023-06-30T06:26:46.639Z,76.78
2023-06-30T06:29:18.444Z,78.10
2023-06-30T06:31:46.109Z,77.69
2023-06-30T06:34:12.771Z,78.82
2023-06-30T06:36:39.412Z,79.18
2023-06-30T06:39:06.083Z,78.21
2023-06-30T06:41:32.929Z,76.79
2023-06-30T06:43:59.653Z,77.80
2023-06-30T06:46:26.425Z,78.60
2023-06-30T06:48:53.398Z,79.86
2023-06-30T06:51:20.050Z,78.55
2023-06-30T06:53:46.692Z,78.05
2023-06-30T06:56:13.417Z,77.75
2023-06-30T06:58:40.277Z,78.70
2023-06-30T07:01:06.997Z,78.69
2023-06-30T07:03:33.678Z,78.68
2023-06-30T07:06:00.404Z,78.93
2023-06-30T07:08:27.978Z,77.92
2023-06-30T07:10:54.675Z,77.81
2023-06-30T07:13:22.136Z,77.73
2023-06-30T07:15:52.081Z,77.68
2023-06-30T07:18:21.858Z,78.19
2023-06-30T07:20:48.960Z,78.65
2023-06-30T07:23:15.801Z,77.94
2023-06-30T07:25:42.704Z,77.71
2023-06-30T07:28:09.628Z,77.70
2023-06-30T07:30:37.533Z,77.12
2023-06-30T07:33:04.787Z,75.54
2023-06-30T07:35:31.579Z,77.33
2023-06-30T07:37:58.198Z,77.75
2023-06-30T07:40:25.034Z,78.07
2023-06-30T07:42:51.859Z,76.90
2023-06-30T07:45:18.647Z,77.63
2023-06-30T07:47:46.997Z,74.77
2023-06-30T07:50:14.243Z,77.00
2023-06-30T07:52:43.356Z,77.26
2023-06-30T07:55:11.515Z,77.47
2023-06-30T07:57:40.478Z,77.96
2023-06-30T08:00:07.802Z,77.34
2023-06-30T08:02:40.777Z,77.49
2023-06-30T08:05:07.738Z,78.38
2023-06-30T08:07:50.609Z,77.24
2023-06-30T08:10:18.596Z,77.50
2023-06-30T08:12:45.394Z,78.41
2023-06-30T08:15:14.984Z,78.14
2023-06-30T08:17:52.220Z,78.64
2023-06-30T08:20:25.889Z,78.83
2023-06-30T08:22:53.077Z,79.52
2023-06-30T08:25:22.784Z,79.18
2023-06-30T08:27:49.403Z,77.11
2023-06-30T08:30:16.699Z,78.16
2023-06-30T08:32:44.079Z,76.33
2023-06-30T08:35:11.115Z,74.72
2023-06-30T08:37:38.797Z,74.62
2023-06-30T08:40:06.167Z,75.56
2023-06-30T08:42:32.883Z,75.60
2023-06-30T08:44:59.529Z,75.72
2023-06-30T08:47:27.148Z,76.73
2023-06-30T08:49:53.988Z,76.09
2023-06-30T08:52:20.723Z,76.58
2023-06-30T08:54:47.386Z,78.58
2023-06-30T08:57:18.862Z,77.55
2023-06-30T08:59:46.124Z,77.77
2023-06-30T09:02:13.012Z,78.49
2023-06-30T09:09:58.247Z,80.98
2023-06-30T09:12:25.490Z,80.14
2023-06-30T09:14:52.545Z,78.95
2023-06-30T09:17:19.507Z,79.43
2023-06-30T09:19:46.285Z,79.31
2023-06-30T09:22:55.175Z,78.92
2023-06-30T09:25:01.120Z,80.94
2023-06-30T09:27:29.087Z,80.68
2023-06-30T09:29:56.232Z,80.09
2023-06-30T09:32:32.841Z,79.49
2023-06-30T09:35:08.944Z,80.05
2023-06-30T09:37:42.776Z,80.46
2023-06-30T09:40:15.601Z,80.14
2023-06-30T09:42:45.213Z,80.49
2023-06-30T09:45:12.112Z,78.78
2023-06-30T09:47:41.453Z,79.69
2023-06-30T09:50:08.462Z,79.15
2023-06-30T09:52:35.487Z,80.57
2023-06-30T09:55:11.411Z,79.47
2023-06-30T09:57:38.304Z,79.46
2023-06-30T10:00:06.197Z,77.91
2023-06-30T10:02:32.936Z,80.07
2023-06-30T10:05:00.040Z,81.14
2023-06-30T10:07:26.802Z,80.88
2023-06-30T10:09:53.609Z,81.97
2023-06-30T10:12:20.338Z,80.49
2023-06-30T10:14:48.443Z,80.24
2023-06-30T10:17:15.289Z,81.67
2023-06-30T10:19:41.960Z,79.82
2023-06-30T10:22:08.608Z,81.18
2023-06-30T10:24:43.629Z,82.08
2023-06-30T10:27:11.177Z,82.40
2023-06-30T10:29:37.855Z,82.31
2023-06-30T10:32:05.109Z,80.36
2023-06-30T10:34:31.863Z,79.48
2023-06-30T10:36:59.420Z,81.09
2023-06-30T10:39:26.641Z,81.22
2023-06-30T10:41:53.301Z,80.12
2023-06-30T10:44:21.846Z,79.37
2023-06-30T10:46:48.753Z,80.76
2023-06-30T10:49:34.282Z,81.40
2023-06-30T10:52:03.487Z,76.85
2023-06-30T10:54:41.590Z,80.35
2023-06-30T10:57:12.059Z,78.52
2023-06-30T10:59:39.509Z,77.64
2023-06-30T11:02:15.363Z,79.75
2023-06-30T11:04:42.918Z,78.04
2023-06-30T11:07:11.704Z,78.97
2023-06-30T11:09:50.497Z,79.28
2023-06-30T11:12:20.890Z,81.28
2023-06-30T11:14:54.604Z,78.96
2023-06-30T11:17:21.314Z,79.44
2023-06-30T11:20:03.179Z,81.21
2023-06-30T11:22:32.892Z,80.76
2023-06-30T11:24:59.608Z,80.23
2023-06-30T11:27:29.210Z,80.52
2023-06-30T11:29:55.905Z,79.95
2023-06-30T11:32:26.391Z,79.51
2023-06-30T11:34:53.297Z,78.76
2023-06-30T11:37:20.041Z,78.26
2023-06-30T11:39:56.032Z,78.41
2023-06-30T11:42:22.935Z,78.18
2023-06-30T11:44:52.526Z,79.03
2023-06-30T11:47:22.201Z,77.55
2023-06-30T11:49:49.560Z,76.43
2023-06-30T11:52:16.554Z,76.36
2023-06-30T11:54:43.228Z,74.50
2023-06-30T11:57:09.864Z,76.65
2023-06-30T11:59:36.559Z,74.17
2023-06-30T12:02:04.007Z,75.91
2023-06-30T12:04:37.098Z,75.38
2023-06-30T12:07:04.780Z,75.35
2023-06-30T12:09:31.477Z,76.03
2023-06-30T12:11:58.192Z,75.51
2023-06-30T12:14:28.423Z,77.13
2023-06-30T12:16:55.462Z,75.39
2023-06-30T12:19:25.970Z,75.10
2023-06-30T12:21:56.637Z,76.42
2023-06-30T12:24:23.436Z,76.81
2023-06-30T12:26:53.122Z,73.81
2023-06-30T12:29:19.975Z,75.16
2023-06-30T12:31:48.504Z,75.62
2023-06-30T12:34:34.598Z,76.48
2023-06-30T12:37:01.346Z,77.26
2023-06-30T12:39:28.442Z,76.98
2023-06-30T12:41:55.240Z,76.53
2023-06-30T12:44:22.382Z,75.64
2023-06-30T12:47:07.623Z,75.51
2023-06-30T12:49:37.596Z,74.39
2023-06-30T12:52:04.816Z,72.46
2023-06-30T12:54:31.468Z,72.29
2023-06-30T12:56:58.103Z,72.40
2023-06-30T12:59:24.942Z,73.14
2023-06-30T13:01:51.726Z,74.58
2023-06-30T13:04:18.409Z,71.41
2023-06-30T13:06:45.235Z,71.48
2023-06-30T13:09:11.942Z,69.71
2023-06-30T13:11:38.647Z,69.69
2023-06-30T13:14:05.335Z,69.45
2023-06-30T13:16:32.832Z,67.63
2023-06-30T13:19:00.183Z,64.41
2023-06-30T13:21:29.276Z,64.36
2023-06-30T13:23:55.958Z,63.51
2023-06-30T13:26:22.976Z,65.95
2023-06-30T13:28:51.990Z,63.88
2023-06-30T13:31:18.951Z,65.84
2023-06-30T13:33:45.876Z,63.20
2023-06-30T13:36:13.989Z,60.60
2023-06-30T13:38:43.846Z,61.34
2023-06-30T13:41:10.679Z,62.91
2023-06-30T13:43:37.532Z,61.39
2023-06-30T13:46:05.169Z,62.69
2023-06-30T13:48:32.463Z,60.81
2023-06-30T13:50:59.139Z,62.48
2023-06-30T13:53:26.299Z,58.15
2023-06-30T13:55:53.129Z,59.95
2023-06-30T13:58:19.806Z,64.85
2023-06-30T14:00:48.347Z,64.51
2023-06-30T14:03:15.899Z,63.21
2023-06-30T14:05:42.900Z,60.05
2023-06-30T14:08:09.851Z,58.98
2023-06-30T14:10:36.697Z,59.19
2023-06-30T14:13:04.341Z,60.53
2023-06-30T14:15:32.580Z,59.67
2023-06-30T14:18:00.567Z,58.90
2023-06-30T14:20:28.316Z,63.85
2023-06-30T14:22:54.989Z,65.26
2023-06-30T14:25:22.612Z,67.03
2023-06-30T14:27:49.371Z,68.33
2023-06-30T14:30:16.192Z,70.81
2023-06-30T14:32:43.030Z,70.15
2023-06-30T14:35:09.774Z,72.59
2023-06-30T14:37:36.444Z,73.43
2023-06-30T14:40:04.225Z,72.86
2023-06-30T14:42:32.511Z,72.70
2023-06-30T14:44:59.613Z,73.28
2023-06-30T14:47:26.379Z,70.63
2023-06-30T14:49:53.010Z,71.06
2023-06-30T14:52:19.861Z,69.91
2023-06-30T14:54:46.500Z,70.22
2023-06-30T14:57:14.050Z,70.37
2023-06-30T14:59:40.729Z,69.44
2023-06-30T15:02:07.590Z,69.96
2023-06-30T15:04:34.883Z,67.66
2023-06-30T15:07:01.631Z,66.75
2023-06-30T15:09:28.676Z,66.34
2023-06-30T15:11:55.357Z,65.48
2023-06-30T15:14:22.061Z,64.84
2023-06-30T15:16:48.838Z,64.02
2023-06-30T15:19:15.586Z,64.30
2023-06-30T15:21:42.364Z,62.15
2023-06-30T15:24:09.027Z,63.68
2023-06-30T15:26:35.708Z,64.42
2023-06-30T15:29:02.725Z,63.11
2023-06-30T15:34:16.667Z,60.69
2023-06-30T15:36:43.374Z,62.57
2023-06-30T15:39:10.010Z,61.06
2023-06-30T15:41:37.013Z,60.28
2023-06-30T15:44:03.905Z,59.76
2023-06-30T15:46:30.612Z,60.79
2023-06-30T15:48:57.567Z,58.84
2023-06-30T15:51:24.234Z,57.94
2023-06-30T15:53:50.897Z,60.82
2023-06-30T15:56:17.531Z,61.41
2023-06-30T15:58:44.277Z,59.44
2023-06-30T16:01:10.983Z,59.99
2023-06-30T16:03:38.367Z,58.58
2023-06-30T16:06:05.257Z,61.99
2023-06-30T16:08:31.923Z,59.37
2023-06-30T16:10:58.626Z,59.85
2023-06-30T16:13:25.315Z,59.90
2023-06-30T16:15:51.983Z,58.23
2023-06-30T16:18:19.719Z,56.50
2023-06-30T16:20:46.402Z,57.22
2023-06-30T16:23:13.434Z,56.28
2023-06-30T16:25:40.099Z,55.49
2023-06-30T16:28:06.888Z,56.83
2023-06-30T16:30:34.523Z,57.28
2023-06-30T16:33:01.461Z,58.84
2023-06-30T16:35:28.653Z,57.13
2023-06-30T16:37:55.632Z,57.87
2023-06-30T16:40:22.351Z,57.33
2023-06-30T16:42:49.045Z,55.89
2023-06-30T16:45:15.688Z,55.95
2023-06-30T16:47:44.583Z,57.65
2023-06-30T16:50:12.047Z,58.72
2023-06-30T16:52:39.999Z,58.08
2023-06-30T16:55:06.991Z,57.79
2023-06-30T16:57:34.041Z,59.11
2023-06-30T17:00:04.956Z,59.00
2023-06-30T17:02:32.204Z,61.91
2023-06-30T17:04:59.166Z,59.04
2023-06-30T17:07:25.971Z,59.14
2023-06-30T17:09:52.863Z,59.79
2023-06-30T17:12:19.516Z,60.17
2023-06-30T17:14:46.139Z,59.38
2023-06-30T17:17:13.665Z,60.41
2023-06-30T17:19:40.321Z,61.96
2023-06-30T17:22:07.087Z,60.17
2023-06-30T17:24:33.907Z,62.25
2023-06-30T17:27:00.577Z,62.83
2023-06-30T17:29:27.277Z,63.35
2023-06-30T17:31:54.495Z,62.91
2023-06-30T17:34:21.183Z,62.56
2023-06-30T17:36:47.806Z,62.15
2023-06-30T17:39:14.622Z,61.97
2023-06-30T17:41:41.644Z,60.87
2023-06-30T17:44:08.331Z,61.69
2023-06-30T17:46:35.022Z,64.31
2023-06-30T17:49:20.877Z,61.63
2023-06-30T17:51:47.582Z,62.52
2023-06-30T17:54:17.010Z,62.40
2023-06-30T17:56:45.426Z,63.66
2023-06-30T17:59:13.287Z,63.82
2023-06-30T18:01:40.410Z,64.24
2023-06-30T18:04:07.213Z,63.85
2023-06-30T18:06:34.279Z,63.35
2023-06-30T18:09:00.968Z,62.68
2023-06-30T18:11:27.620Z,62.65
2023-06-30T18:13:54.257Z,61.11
2023-06-30T18:16:21.217Z,64.00
2023-06-30T18:18:47.948Z,62.86
2023-06-30T18:21:14.613Z,63.75
2023-06-30T18:23:42.538Z,63.94
2023-06-30T18:26:09.316Z,64.21
2023-06-30T18:28:36.001Z,64.35
2023-06-30T18:31:02.705Z,64.37
2023-06-30T18:33:29.314Z,64.94
2023-06-30T18:35:56.032Z,64.00
2023-06-30T18:38:23.212Z,64.21
2023-06-30T18:40:50.046Z,65.09
2023-06-30T18:43:16.678Z,65.46
2023-06-30T18:45:43.508Z,66.15
2023-06-30T18:48:10.301Z,65.83
2023-06-30T18:50:36.961Z,67.21
2023-06-30T18:53:03.635Z,66.70
2023-06-30T18:55:31.970Z,67.05
2023-06-30T18:57:58.639Z,66.09
2023-06-30T19:00:25.355Z,65.36
2023-06-30T19:02:52.137Z,66.02
2023-06-30T19:05:18.897Z,66.14
2023-06-30T19:07:45.583Z,66.17
2023-06-30T19:10:12.326Z,66.59
2023-06-30T19:12:39.050Z,66.51
2023-06-30T19:15:06.367Z,66.98
2023-06-30T19:17:34.992Z,66.12
2023-06-30T19:20:01.877Z,66.32
2023-06-30T19:22:28.540Z,64.88
2023-06-30T19:24:55.470Z,65.71
2023-06-30T19:27:22.161Z,66.17
2023-06-30T19:29:48.856Z,66.35
2023-06-30T19:32:15.509Z,65.71
2023-06-30T19:34:44.559Z,67.33
2023-06-30T19:37:12.067Z,67.58
2023-06-30T19:39:38.806Z,68.34
2023-06-30T19:42:05.593Z,68.92
2023-06-30T19:44:32.280Z,68.55
2023-06-30T19:46:58.950Z,67.38
2023-06-30T19:49:25.625Z,68.78
2023-06-30T19:51:52.253Z,67.86
2023-06-30T19:54:18.890Z,67.99
2023-06-30T19:56:45.551Z,68.05
2023-06-30T19:59:13.564Z,68.60
2023-06-30T20:01:44.495Z,68.54
2023-06-30T20:04:11.674Z,68.84
2023-06-30T20:06:38.727Z,67.94
2023-06-30T20:09:05.849Z,68.05
2023-06-30T20:11:32.510Z,68.84
2023-06-30T20:13:59.186Z,67.66
2023-06-30T20:16:25.880Z,68.44
2023-06-30T20:18:52.921Z,68.50
2023-06-30T20:21:19.774Z,68.72
2023-06-30T20:23:46.381Z,69.00
2023-06-30T20:26:13.346Z,68.70
2023-06-30T20:28:39.982Z,68.42
2023-06-30T20:31:09.840Z,67.93
2023-06-30T20:33:36.801Z,67.89
2023-06-30T20:36:03.711Z,68.10
2023-06-30T20:38:30.474Z,68.14
2023-06-30T20:40:57.185Z,67.98
2023-06-30T20:43:23.900Z,67.82
2023-06-30T20:45:50.542Z,68.21
2023-06-30T20:48:17.195Z,67.19
2023-06-30T20:50:44.620Z,67.75
2023-06-30T20:53:11.531Z,68.05
2023-06-30T20:55:38.517Z,67.55
2023-06-30T20:58:05.139Z,68.57
2023-06-30T21:00:31.830Z,68.78
2023-06-30T21:02:58.548Z,68.60
2023-06-30T21:05:25.337Z,68.79
2023-06-30T21:07:51.972Z,68.46
2023-06-30T21:10:18.665Z,68.63
2023-06-30T21:12:45.365Z,68.96
2023-06-30T21:15:12.001Z,69.21
2023-06-30T21:17:38.675Z,68.84
2023-06-30T21:20:05.622Z,68.37
2023-06-30T21:22:32.262Z,68.57
2023-06-30T21:24:58.887Z,69.01
2023-06-30T21:27:26.912Z,69.44
2023-06-30T21:29:53.561Z,69.25
2023-06-30T21:32:20.239Z,69.03
2023-06-30T21:34:47.475Z,68.53
2023-06-30T21:37:14.197Z,68.08
2023-06-30T21:39:41.013Z,68.35
2023-06-30T21:42:07.777Z,68.74
2023-06-30T21:44:34.404Z,68.31
2023-06-30T21:47:01.155Z,67.92
2023-06-30T21:49:27.830Z,68.53
2023-06-30T21:51:54.858Z,67.02
2023-06-30T21:54:31.358Z,67.58
2023-06-30T21:57:07.738Z,67.92
2023-06-30T21:59:34.814Z,67.76
2023-06-30T22:02:01.467Z,67.43
2023-06-30T22:04:31.307Z,67.56
2023-06-30T22:06:58.154Z,67.03
2023-06-30T22:09:25.238Z,68.02
2023-06-30T22:11:51.959Z,67.61
2023-06-30T22:14:18.612Z,67.57
2023-06-30T22:16:46.005Z,67.16
2023-06-30T22:19:12.741Z,66.90
2023-06-30T22:21:39.509Z,67.29
2023-06-30T22:24:06.330Z,67.67
2023-06-30T22:26:32.977Z,67.50
2023-06-30T22:28:59.621Z,68.06
2023-06-30T22:31:26.393Z,68.06
2023-06-30T22:33:53.275Z,67.27
2023-06-30T22:36:20.015Z,67.03
2023-06-30T22:38:46.680Z,66.87
2023-06-30T22:41:13.323Z,67.13
2023-06-30T22:43:40.044Z,66.70
2023-06-30T22:46:06.703Z,66.49
2023-06-30T22:48:33.331Z,65.52
2023-06-30T22:50:59.958Z,65.51
2023-06-30T22:53:26.668Z,65.11
2023-06-30T22:55:53.299Z,65.09
2023-06-30T22:58:19.999Z,65.07
2023-06-30T23:00:46.725Z,65.62
2023-06-30T23:03:13.626Z,63.47
2023-06-30T23:05:40.478Z,63.16
2023-06-30T23:08:07.375Z,62.24
2023-06-30T23:10:34.040Z,62.69
2023-06-30T23:13:00.667Z,62.99
2023-06-30T23:15:27.326Z,61.87
2023-06-30T23:17:54.162Z,60.40
2023-06-30T23:20:25.008Z,62.25
2023-06-30T23:22:52.528Z,62.28
2023-06-30T23:25:22.179Z,62.14
2023-06-30T23:27:51.607Z,62.72
2023-06-30T23:30:18.234Z,62.95
2023-06-30T23:32:47.703Z,61.91
2023-06-30T23:35:14.470Z,62.34
2023-06-30T23:37:41.086Z,62.89
2023-06-30T23:40:08.016Z,62.91
2023-06-30T23:42:34.648Z,63.38
2023-06-30T23:45:01.258Z,61.77
2023-06-30T23:47:27.953Z,63.15
2023-06-30T23:49:54.629Z,61.89
2023-06-30T23:52:21.935Z,62.81
2023-06-30T23:54:48.658Z,62.50
2023-06-30T23:57:15.348Z,62.41
2023-06-30T23:59:44.624Z,62.87
